Latest Weather Observations for Cleve Airport

IDS60801

Issued at 7:34 pm CDT Wednesday 1 April 2015 (issued every 30 minutes, with the page automatically refreshed every 10 minutes)

About weather observations | Map of weather stations | Latest weather observations for SA | Other Formats
Station Details ID: 018116 Name: CLEVE AERODROME Lat: -33.71 Lon: 136.50 Height: 175.0 m
Data from the previous 72 hours. | See also: Recent months at Cleve Airport
Date/Time
CDT
Temp
°C
App
Temp
°C
Dew
Point
Rel
Hum
%
Delta-T
°C
Wind Press
QNH
hPa
Press
MSL
hPa
Rain
since 9 am
mm
Dir
 
Spd
km/h
Gust
km/h
Spd
kts
Gust
kts
01/07:30pm 18.0 16.4 16.5 91 0.9 SSE 20 26 11 14 1017.7 - 0.2
01/07:00pm 18.4 17.1 16.7 90 1.0 SE 19 26 10 14 1017.4 - 0.2
01/06:30pm 18.7 17.9 17.0 90 1.0 SSE 17 22 9 12 1017.0 - 0.2
01/06:00pm 19.0 17.7 16.8 87 1.3 SSE 19 24 10 13 1016.8 1016.5 0.2
01/05:30pm 20.6 17.2 15.8 74 2.9 SSE 28 33 15 18 1016.0 - 0.0
01/05:13pm 21.1 17.2 15.6 71 3.3 SSE 30 37 16 20 1015.5 - 0.0
01/05:00pm 26.1 23.2 13.9 47 7.3 W 22 30 12 16 1015.1 - 0.0
01/04:30pm 26.6 24.2 14.4 47 7.3 W 20 30 11 16 1015.0 - 0.0
01/04:00pm 26.9 23.4 12.2 40 8.5 W 22 30 12 16 1015.0 - 0.0
01/03:30pm 26.5 21.4 10.6 37 9.0 W 28 35 15 19 1015.0 - 0.0
01/03:00pm 26.8 21.6 11.7 39 8.7 W 30 39 16 21 1015.0 1014.6 0.0
01/02:30pm 29.0 24.7 12.0 35 9.9 W 26 37 14 20 1014.8 - 0.0
01/02:00pm 28.0 22.9 12.0 37 9.3 W 30 39 16 21 1015.1 - 0.0
01/01:30pm 28.5 22.7 10.7 33 10.2 W 32 43 17 23 1015.3 - 0.0
01/01:00pm 28.9 23.1 9.6 30 10.9 W 30 48 16 26 1015.3 - 0.0
01/12:30pm 28.9 22.9 10.1 31 10.7 W 32 46 17 25 1015.4 - 0.0
01/12:00pm 27.9 22.7 10.1 33 10.0 W 28 39 15 21 1015.7 1015.3 0.0
01/11:30am 28.1 22.2 7.4 27 11.2 WNW 28 37 15 20 1015.6 - 0.0
01/11:00am 27.3 20.0 5.6 25 11.3 WNW 33 48 18 26 1015.8 - 0.0
01/10:30am 27.4 20.1 2.5 20 12.3 NW 30 43 16 23 1015.9 - 0.0
01/10:00am 26.4 19.1 2.3 21 11.8 NNW 30 41 16 22 1015.6 - 0.0
01/09:30am 26.1 18.5 2.7 22 11.5 NNW 32 44 17 24 1015.7 - 0.0
01/09:18am 26.5 19.2 2.4 21 11.8 NNW 30 50 16 27 1015.5 - 0.0
01/09:00am 26.1 19.6 2.7 22 11.5 NNW 26 39 14 21 1015.5 1015.1 0.0
01/08:30am 25.5 18.3 2.9 23 11.1 N 30 41 16 22 1015.3 - 0.0
01/08:00am 25.2 18.3 2.6 23 11.0 N 28 37 15 20 1015.0 - 0.0
01/07:30am 24.6 17.3 2.7 24 10.7 N 30 37 16 20 1015.0 - 0.0
01/07:00am 24.4 16.8 3.1 25 10.4 N 32 39 17 21 1015.0 - 0.0
01/06:30am 24.5 17.3 3.2 25 10.4 N 30 37 16 20 1015.0 - 0.0
01/06:00am 23.9 16.6 2.7 25 10.3 N 30 41 16 22 1015.0 1014.6 0.0
01/05:30am 23.9 16.6 2.7 25 10.3 N 30 39 16 21 1014.7 - 0.0
01/05:00am 24.0 17.0 2.2 24 10.5 N 28 37 15 20 1014.7 - 0.0
01/04:30am 23.8 16.9 2.6 25 10.2 N 28 37 15 20 1014.9 - 0.0
01/04:00am 22.6 16.2 3.2 28 9.4 N 26 32 14 17 1015.5 - 0.0
01/03:30am 22.8 17.6 3.4 28 9.4 N 20 30 11 16 1016.0 - 0.0
01/03:00am 23.0 18.7 3.5 28 9.5 N 15 19 8 10 1016.5 1016.2 0.0
01/02:30am 22.7 17.6 3.3 28 9.4 N 19 24 10 13 1016.9 - 0.0
01/02:00am 22.5 16.8 3.1 28 9.4 N 22 26 12 14 1017.4 - 0.0
01/01:30am 22.2 16.5 2.8 28 9.3 N 22 26 12 14 1017.7 - 0.0
01/01:00am 22.1 16.9 3.3 29 9.1 NNW 20 28 11 15 1018.1 - 0.0
01/12:30am 21.9 16.3 3.6 30 8.9 NNW 22 28 12 15 1018.5 - 0.0
01/12:00am 23.4 18.5 3.9 28 9.6 N 19 20 10 11 1018.6 1018.2 0.0
 
Date/Time
CDT
Temp
°C
App
Temp
°C
Dew
Point
Rel
Hum
%
Delta-T
°C
Wind Press
QNH
hPa
Press
MSL
hPa
Rain
since 9 am
mm
Dir
 
Spd
km/h
Gust
km/h
Spd
kts
Gust
kts
31/11:30pm 23.3 18.4 4.3 29 9.4 NNE 19 22 10 12 1018.5 - 0.0
31/11:00pm 23.7 18.7 4.6 29 9.6 NNE 20 24 11 13 1018.5 - 0.0
31/10:30pm 23.3 18.3 4.8 30 9.3 NNE 20 24 11 13 1018.7 - 0.0
31/10:00pm 23.5 18.0 4.0 28 9.6 NNE 22 24 12 13 1018.8 - 0.0
31/09:30pm 23.8 18.5 3.2 26 10.1 NNE 20 24 11 13 1018.7 - 0.0
31/09:00pm 23.7 18.5 2.5 25 10.2 NNE 19 22 10 12 1018.7 1018.1 0.0
31/08:30pm 23.2 20.0 3.2 27 9.7 NE 9 11 5 6 1018.6 - 0.0
31/08:00pm 24.3 20.2 4.6 28 9.9 ENE 15 17 8 9 1018.4 - 0.0
31/07:30pm 26.2 21.3 5.2 26 10.8 E 20 30 11 16 1018.4 - 0.0
31/07:00pm 27.1 22.0 6.0 26 11.1 ESE 22 30 12 16 1018.0 - 0.0
31/06:30pm 28.1 23.0 6.2 25 11.6 SE 22 28 12 15 1018.2 - 0.0
31/06:00pm 29.4 23.7 6.7 24 12.2 ESE 26 32 14 17 1018.4 1017.8 0.0
31/05:30pm 29.8 24.1 6.5 23 12.5 ESE 26 35 14 19 1018.2 - 0.0
31/05:00pm 30.6 24.7 5.8 21 13.2 ESE 26 32 14 17 1018.4 - 0.0
31/04:30pm 30.9 23.9 6.0 21 13.3 ESE 32 37 17 20 1018.1 - 0.0
31/04:00pm 31.3 26.3 6.4 21 13.5 E 22 32 12 17 1018.8 - 0.0
31/03:30pm 32.4 27.6 7.3 21 13.8 SSE 22 30 12 16 1018.7 - 0.0
31/03:00pm 32.0 29.3 3.9 17 14.6 W 7 17 4 9 1019.1 1018.5 0.0
31/02:30pm 32.2 29.7 4.9 18 14.5 NW 7 11 4 6 1019.5 - 0.0
31/02:00pm 31.8 29.4 5.3 19 14.1 NE 7 13 4 7 1020.0 - 0.0
31/01:30pm 30.9 28.5 5.3 20 13.6 ESE 7 13 4 7 1020.4 - 0.0
31/01:00pm 30.3 28.0 5.6 21 13.1 WSW 7 15 4 8 1021.0 - 0.0
31/12:30pm 29.7 26.3 5.7 22 12.7 NW 13 22 7 12 1021.7 - 0.0
31/12:00pm 29.2 25.4 6.0 23 12.3 N 15 22 8 12 1021.9 1021.4 0.0
31/11:30am 29.2 24.2 6.6 24 12.1 N 22 30 12 16 1022.3 - 0.0
31/11:00am 28.5 22.8 6.6 25 11.7 N 26 35 14 19 1022.5 - 0.0
31/10:30am 26.7 20.6 6.7 28 10.6 N 28 37 15 20 1022.8 - 0.0
31/10:00am 25.1 19.0 6.8 31 9.6 N 28 39 15 21 1022.9 - 0.0
31/09:30am 23.5 17.8 6.7 34 8.7 N 26 37 14 20 1022.9 - 0.0
31/09:00am 23.5 17.8 6.7 34 8.7 N 26 33 14 18 1022.8 1022.3 0.0
31/08:30am 21.4 16.6 7.3 40 7.3 NNE 22 28 12 15 1022.5 - 0.0
31/08:00am 20.0 15.7 7.7 45 6.4 NNE 20 24 11 13 1022.4 - 0.0
31/07:30am 19.6 15.4 7.4 45 6.3 N 19 24 10 13 1022.2 - 0.0
31/07:00am 19.6 15.8 7.7 46 6.2 N 17 24 9 13 1022.3 - 0.0
31/06:30am 17.3 15.4 7.6 53 4.9 N 7 17 4 9 1022.3 - 0.0
31/06:00am 18.0 15.8 7.7 51 5.2 NNE 9 13 5 7 1022.3 1021.8 0.0
31/05:30am 16.4 14.2 7.9 57 4.3 ESE 9 15 5 8 1022.1 - 0.0
31/05:00am 18.2 16.4 7.9 51 5.3 E 7 11 4 6 1022.2 - 0.0
31/04:30am 17.2 15.5 8.4 56 4.5 E 7 11 4 6 1022.5 - 0.0
31/04:00am 17.2 15.1 8.4 56 4.5 NE 9 13 5 7 1022.7 - 0.0
31/03:30am 17.9 15.3 9.3 57 4.5 NE 13 17 7 9 1022.9 - 0.0
31/03:00am 16.1 14.3 9.3 64 3.5 E 9 11 5 6 1023.1 1022.6 0.0
31/02:30am 15.3 14.0 9.9 70 2.8 NE 7 9 4 5 1023.5 - 0.0
31/02:00am 14.8 12.8 10.0 73 2.5 ENE 11 13 6 7 1023.7 - 0.0
31/01:30am 16.3 14.1 9.5 64 3.6 NNE 11 11 6 6 1023.5 - 0.0
31/01:00am 16.6 15.2 10.9 69 3.1 NE 9 11 5 6 1023.6 - 0.0
31/12:30am 15.5 13.6 10.5 72 2.7 NE 11 13 6 7 1023.9 - 0.0
31/12:00am 15.2 13.1 9.6 69 2.9 NE 11 15 6 8 1024.1 1023.6 0.0
 
Date/Time
CDT
Temp
°C
App
Temp
°C
Dew
Point
Rel
Hum
%
Delta-T
°C
Wind Press
QNH
hPa
Press
MSL
hPa
Rain
since 9 am
mm
Dir
 
Spd
km/h
Gust
km/h
Spd
kts
Gust
kts
30/11:30pm 16.4 13.7 10.3 67 3.3 NE 15 15 8 8 1024.5 - 0.0
30/11:00pm 16.6 14.0 9.5 63 3.7 ENE 13 15 7 8 1024.6 - 0.0
30/10:30pm 16.5 13.3 8.5 59 4.1 ENE 15 17 8 9 1024.4 - 0.0
30/10:00pm 16.0 12.8 8.5 61 3.8 ENE 15 17 8 9 1024.4 - 0.0
30/09:30pm 15.8 13.0 8.5 62 3.7 E 13 13 7 7 1024.3 - 0.0
30/09:00pm 16.2 13.2 7.9 58 4.2 E 13 15 7 8 1024.1 1023.6 0.0
30/08:30pm 17.0 14.0 7.6 54 4.8 E 13 15 7 8 1023.9 - 0.0
30/08:00pm 19.2 16.0 8.5 50 5.6 ESE 15 17 8 9 1023.5 - 0.0
30/07:30pm 20.6 17.1 8.6 46 6.3 ESE 17 20 9 11 1023.4 - 0.0
30/07:00pm 21.9 17.9 9.1 44 6.9 ESE 20 24 11 13 1023.1 - 0.0
30/06:30pm 22.7 18.8 9.5 43 7.2 ESE 20 28 11 15 1022.9 - 0.0
30/06:00pm 23.4 19.2 9.8 42 7.4 ESE 22 28 12 15 1022.8 1022.3 0.0
30/05:30pm 24.0 19.8 9.9 41 7.8 ESE 22 30 12 16 1022.7 - 0.0
30/05:00pm 24.1 19.7 10.4 42 7.6 ESE 24 30 13 16 1022.6 - 0.0
30/04:30pm 24.7 20.4 10.9 42 7.8 ESE 24 32 13 17 1022.6 - 0.0
30/04:00pm 25.1 20.7 11.6 42 7.7 SE 26 33 14 18 1022.5 - 0.0
30/03:30pm 25.2 21.3 12.1 44 7.6 ESE 24 33 13 18 1022.6 - 0.0
30/03:00pm 25.2 20.6 12.4 45 7.4 SE 28 39 15 21 1022.7 1022.2 0.0
30/02:30pm 25.5 21.3 12.4 44 7.6 SE 26 32 14 17 1022.8 - 0.0
30/02:00pm 26.3 22.6 12.7 43 8.0 SE 24 33 13 18 1023.1 - 0.0
30/01:30pm 27.0 23.8 11.1 37 9.1 ESE 19 26 10 14 1023.4 - 0.0
30/01:00pm 26.5 24.4 11.0 38 8.8 SE 13 20 7 11 1023.8 - 0.0
30/12:30pm 25.5 22.1 10.5 39 8.4 E 19 22 10 12 1024.4 - 0.0
30/12:00pm 25.0 23.2 10.8 41 8.0 SE 11 20 6 11 1024.7 1024.1 0.0
30/11:30am 23.5 21.3 10.9 45 7.1 E 13 20 7 11 1025.0 - 0.0
30/11:00am 22.8 20.2 10.6 46 6.8 E 15 22 8 12 1025.3 - 0.0
30/10:30am 21.8 18.5 10.9 50 6.1 E 19 24 10 13 1025.4 - 0.0
30/10:00am 20.8 17.6 11.4 55 5.2 E 19 24 10 13 1025.3 - 0.0
30/09:30am 19.3 17.7 11.6 61 4.3 E 11 13 6 7 1025.2 - 0.0
30/09:00am 17.8 17.4 12.3 70 3.1 NE 6 11 3 6 1025.0 1024.4 0.0
30/08:30am 14.9 14.1 12.8 87 1.2 NNE 9 9 5 5 1024.6 - 0.0
30/08:00am 13.1 12.5 11.8 92 0.7 NE 6 7 3 4 1024.3 - 0.0
30/07:30am 12.3 10.2 11.0 92 0.7 NNE 13 15 7 8 1023.9 - 0.0
30/07:00am 12.7 10.6 11.3 91 0.7 NNE 13 15 7 8 1023.5 - 0.0
30/06:30am 12.5 10.4 11.1 91 0.7 NE 13 15 7 8 1023.0 - 0.0
30/06:00am 12.9 10.9 11.5 91 0.7 NE 13 15 7 8 1022.9 1022.4 0.0
30/05:30am 12.7 10.6 11.3 91 0.7 NE 13 15 7 8 1022.8 - 0.0
30/05:00am 12.8 10.8 11.4 91 0.7 NE 13 13 7 7 1022.7 - 0.0
30/04:30am 13.6 12.1 12.0 90 0.9 NNE 11 13 6 7 1022.8 - 0.0
30/04:00am 13.2 11.2 11.6 90 0.9 NNE 13 13 7 7 1022.8 - 0.0
30/03:30am 13.1 11.0 11.3 89 1.0 NE 13 15 7 8 1023.0 - 0.0
30/03:00am 13.4 11.8 11.5 88 1.0 NE 11 13 6 7 1023.1 1022.6 0.0
30/02:30am 13.2 11.1 11.1 87 1.1 NE 13 13 7 7 1023.4 - 0.0
30/02:00am 13.4 11.7 11.1 86 1.2 NE 11 13 6 7 1023.6 - 0.0
30/01:30am 13.4 11.6 10.9 85 1.3 NE 11 13 6 7 1023.8 - 0.0
30/01:00am 13.6 12.2 10.8 83 1.5 NE 9 11 5 6 1024.0 - 0.0
30/12:30am 13.7 11.9 10.7 82 1.6 NE 11 11 6 6 1024.3 - 0.0
30/12:00am 13.7 11.7 10.3 80 1.8 ENE 11 13 6 7 1024.1 1023.6 0.0
 
Date/Time
CDT
Temp
°C
App
Temp
°C
Dew
Point
Rel
Hum
%
Delta-T
°C
Wind Press
QNH
hPa
Press
MSL
hPa
Rain
since 9 am
mm
Dir
 
Spd
km/h
Gust
km/h
Spd
kts
Gust
kts
29/11:30pm 14.0 12.5 10.4 79 1.9 NE 9 11 5 6 1024.4 - 0.0
29/11:00pm 14.3 12.3 10.3 77 2.1 NE 11 11 6 6 1024.5 - 0.0
29/10:30pm 14.7 13.2 10.5 76 2.2 NE 9 13 5 7 1024.4 - 0.0
29/10:00pm 15.3 14.3 10.9 75 2.4 ENE 7 9 4 5 1024.1 - 0.0
29/09:30pm 15.1 13.1 10.3 73 2.5 ENE 11 13 6 7 1023.8 - 0.0
29/09:00pm 16.2 14.3 10.5 69 3.0 E 11 11 6 6 1023.6 1023.1 0.0
29/08:30pm 18.1 16.2 11.7 66 3.5 E 13 17 7 9 1023.3 - 0.0
29/08:00pm 18.8 16.5 11.9 64 3.8 ESE 15 19 8 10 1023.1 - 0.0

Other Formats:

Comma delimited format used in spreadsheet applications
http://www.bom.gov.au/fwo/IDS60801/IDS60801.94662.axf

JavaScript Object Notation format (JSON) in row-major order
http://www.bom.gov.au/fwo/IDS60801/IDS60801.94662.json